sensor_id;sensor_type;location;lat;lon;timestamp;pressure;altitude;pressure_sealevel;temperature;humidity
70304;BME280;57712;48.752;11.348;2023-12-20T00:01:06;97510.84;;;5.33;100.00
70304;BME280;57712;48.752;11.348;2023-12-20T00:03:33;97512.00;;;5.28;100.00
70304;BME280;57712;48.752;11.348;2023-12-20T00:06:08;97495.75;;;5.42;100.00
70304;BME280;57712;48.752;11.348;2023-12-20T00:08:35;97493.41;;;5.48;100.00
70304;BME280;57712;48.752;11.348;2023-12-20T00:11:02;97487.56;;;5.32;100.00
70304;BME280;57712;48.752;11.348;2023-12-20T00:13:29;97487.59;;;5.42;100.00
70304;BME280;57712;48.752;11.348;2023-12-20T00:15:56;97484.88;;;5.42;100.00
70304;BME280;57712;48.752;11.348;2023-12-20T00:18:23;97487.97;;;5.48;100.00
70304;BME280;57712;48.752;11.348;2023-12-20T00:20:50;97471.69;;;5.48;100.00
70304;BME280;57712;48.752;11.348;2023-12-20T00:23:17;97462.00;;;5.61;100.00
70304;BME280;57712;48.752;11.348;2023-12-20T00:25:43;97467.84;;;5.67;100.00
70304;BME280;57712;48.752;11.348;2023-12-20T00:28:10;97459.28;;;5.61;100.00
70304;BME280;57712;48.752;11.348;2023-12-20T00:30:37;97458.13;;;5.73;100.00
70304;BME280;57712;48.752;11.348;2023-12-20T00:33:04;97467.81;;;5.60;100.00
70304;BME280;57712;48.752;11.348;2023-12-20T00:35:30;97470.94;;;5.69;100.00
70304;BME280;57712;48.752;11.348;2023-12-20T00:37:58;97467.44;;;5.68;100.00
70304;BME280;57712;48.752;11.348;2023-12-20T00:40:25;97464.72;;;5.68;100.00
70304;BME280;57712;48.752;11.348;2023-12-20T00:42:52;97456.56;;;5.65;100.00
70304;BME280;57712;48.752;11.348;2023-12-20T00:45:19;97453.84;;;5.68;100.00
70304;BME280;57712;48.752;11.348;2023-12-20T00:47:45;97452.69;;;5.69;100.00
70304;BME280;57712;48.752;11.348;2023-12-20T00:50:13;97466.28;;;5.69;100.00
70304;BME280;57712;48.752;11.348;2023-12-20T00:52:39;97460.06;;;5.69;100.00
70304;BME280;57712;48.752;11.348;2023-12-20T00:55:06;97457.75;;;5.64;100.00
70304;BME280;57712;48.752;11.348;2023-12-20T00:57:34;97455.41;;;5.55;100.00
70304;BME280;57712;48.752;11.348;2023-12-20T01:00:01;97453.84;;;5.61;100.00
70304;BME280;57712;48.752;11.348;2023-12-20T01:02:28;97440.66;;;5.63;100.00
70304;BME280;57712;48.752;11.348;2023-12-20T01:04:55;97432.88;;;5.51;100.00
70304;BME280;57712;48.752;11.348;2023-12-20T01:07:22;97446.09;;;5.53;100.00
70304;BME280;57712;48.752;11.348;2023-12-20T01:09:49;97459.25;;;5.47;100.00
70304;BME280;57712;48.752;11.348;2023-12-20T01:12:16;97456.16;;;5.52;100.00
70304;BME280;57712;48.752;11.348;2023-12-20T01:14:45;97459.25;;;5.50;100.00
70304;BME280;57712;48.752;11.348;2023-12-20T01:17:12;97452.25;;;5.39;100.00
70304;BME280;57712;48.752;11.348;2023-12-20T01:19:39;97451.50;;;5.42;100.00
70304;BME280;57712;48.752;11.348;2023-12-20T01:22:06;97446.44;;;5.33;100.00
70304;BME280;57712;48.752;11.348;2023-12-20T01:24:32;97439.06;;;5.34;100.00
70304;BME280;57712;48.752;11.348;2023-12-20T01:26:59;97443.38;;;5.42;100.00
70304;BME280;57712;48.752;11.348;2023-12-20T01:29:26;97446.81;;;5.28;100.00
70304;BME280;57712;48.752;11.348;2023-12-20T01:31:52;97443.75;;;5.44;100.00
70304;BME280;57712;48.752;11.348;2023-12-20T01:34:19;97442.94;;;5.40;100.00
70304;BME280;57712;48.752;11.348;2023-12-20T01:36:46;97435.22;;;5.42;100.00
70304;BME280;57712;48.752;11.348;2023-12-20T01:39:13;97433.63;;;5.37;100.00
70304;BME280;57712;48.752;11.348;2023-12-20T01:41:53;97430.94;;;5.48;100.00
70304;BME280;57712;48.752;11.348;2023-12-20T01:44:20;97422.78;;;5.44;100.00
70304;BME280;57712;48.752;11.348;2023-12-20T01:46:47;97420.84;;;5.38;100.00
70304;BME280;57712;48.752;11.348;2023-12-20T01:49:14;97408.81;;;5.42;100.00
70304;BME280;57712;48.752;11.348;2023-12-20T01:51:42;97416.56;;;5.47;100.00
70304;BME280;57712;48.752;11.348;2023-12-20T01:54:09;97416.19;;;5.56;100.00
70304;BME280;57712;48.752;11.348;2023-12-20T01:56:39;97404.94;;;5.54;100.00
70304;BME280;57712;48.752;11.348;2023-12-20T01:59:06;97394.47;;;5.42;100.00
70304;BME280;57712;48.752;11.348;2023-12-20T02:01:34;97400.25;;;5.40;100.00
70304;BME280;57712;48.752;11.348;2023-12-20T02:04:02;97396.41;;;5.45;100.00
70304;BME280;57712;48.752;11.348;2023-12-20T02:06:30;97396.78;;;5.47;100.00
70304;BME280;57712;48.752;11.348;2023-12-20T02:09:00;97401.84;;;5.56;100.00
70304;BME280;57712;48.752;11.348;2023-12-20T02:11:27;97398.72;;;5.61;100.00
70304;BME280;57712;48.752;11.348;2023-12-20T02:13:54;97395.63;;;5.55;100.00
70304;BME280;57712;48.752;11.348;2023-12-20T02:16:21;97391.75;;;5.63;100.00
70304;BME280;57712;48.752;11.348;2023-12-20T02:18:48;97400.28;;;5.58;100.00
70304;BME280;57712;48.752;11.348;2023-12-20T02:21:16;97395.63;;;5.55;100.00
70304;BME280;57712;48.752;11.348;2023-12-20T02:23:42;97385.91;;;5.68;100.00
70304;BME280;57712;48.752;11.348;2023-12-20T02:26:10;97380.09;;;5.59;100.00
70304;BME280;57712;48.752;11.348;2023-12-20T02:28:37;97387.09;;;5.53;100.00
70304;BME280;57712;48.752;11.348;2023-12-20T02:31:03;97382.03;;;5.59;100.00
70304;BME280;57712;48.752;11.348;2023-12-20T02:33:31;97383.19;;;5.68;100.00
70304;BME280;57712;48.752;11.348;2023-12-20T02:35:57;97379.72;;;5.68;100.00
70304;BME280;57712;48.752;11.348;2023-12-20T02:38:24;97379.31;;;5.59;100.00
70304;BME280;57712;48.752;11.348;2023-12-20T02:40:51;97388.25;;;5.66;100.00
70304;BME280;57712;48.752;11.348;2023-12-20T02:43:17;97376.22;;;5.67;100.00
70304;BME280;57712;48.752;11.348;2023-12-20T02:45:44;97382.44;;;5.64;100.00
70304;BME280;57712;48.752;11.348;2023-12-20T02:48:11;97373.88;;;5.69;100.00
70304;BME280;57712;48.752;11.348;2023-12-20T02:50:38;97379.31;;;5.69;100.00
70304;BME280;57712;48.752;11.348;2023-12-20T02:53:05;97382.44;;;5.54;100.00
70304;BME280;57712;48.752;11.348;2023-12-20T02:55:32;97380.91;;;5.53;100.00
70304;BME280;57712;48.752;11.348;2023-12-20T02:57:58;97374.66;;;5.59;100.00
70304;BME280;57712;48.752;11.348;2023-12-20T03:00:25;97380.50;;;5.47;100.00
70304;BME280;57712;48.752;11.348;2023-12-20T03:02:52;97375.81;;;5.51;100.00
70304;BME280;57712;48.752;11.348;2023-12-20T03:05:19;97376.59;;;5.51;100.00
70304;BME280;57712;48.752;11.348;2023-12-20T03:07:47;97365.34;;;5.35;100.00
70304;BME280;57712;48.752;11.348;2023-12-20T03:10:14;97373.13;;;5.37;100.00
70304;BME280;57712;48.752;11.348;2023-12-20T03:12:51;97373.50;;;5.32;100.00
70304;BME280;57712;48.752;11.348;2023-12-20T03:15:18;97374.66;;;5.27;100.00
70304;BME280;57712;48.752;11.348;2023-12-20T03:17:45;97381.63;;;5.28;100.00
70304;BME280;57712;48.752;11.348;2023-12-20T03:20:12;97390.16;;;5.27;100.00
70304;BME280;57712;48.752;11.348;2023-12-20T03:22:39;97388.63;;;5.33;100.00
70304;BME280;57712;48.752;11.348;2023-12-20T03:25:05;97392.53;;;5.32;100.00
70304;BME280;57712;48.752;11.348;2023-12-20T03:27:32;97401.00;;;5.19;100.00
70304;BME280;57712;48.752;11.348;2023-12-20T03:29:59;97411.06;;;5.01;100.00
70304;BME280;57712;48.752;11.348;2023-12-20T03:32:26;97407.16;;;4.95;100.00
70304;BME280;57712;48.752;11.348;2023-12-20T03:34:52;97414.16;;;4.96;100.00
70304;BME280;57712;48.752;11.348;2023-12-20T03:37:19;97421.53;;;4.92;100.00
70304;BME280;57712;48.752;11.348;2023-12-20T03:39:46;97413.34;;;4.88;100.00
70304;BME280;57712;48.752;11.348;2023-12-20T03:42:13;97416.06;;;4.88;100.00
70304;BME280;57712;48.752;11.348;2023-12-20T03:44:40;97419.53;;;4.82;100.00
70304;BME280;57712;48.752;11.348;2023-12-20T03:47:07;97422.25;;;4.89;100.00
70304;BME280;57712;48.752;11.348;2023-12-20T03:49:34;97424.19;;;4.81;100.00
70304;BME280;57712;48.752;11.348;2023-12-20T03:52:04;97430.75;;;4.73;100.00
70304;BME280;57712;48.752;11.348;2023-12-20T03:54:31;97431.91;;;4.76;100.00
70304;BME280;57712;48.752;11.348;2023-12-20T03:56:58;97427.28;;;4.80;100.00
70304;BME280;57712;48.752;11.348;2023-12-20T03:59:24;97435.00;;;4.71;100.00
70304;BME280;57712;48.752;11.348;2023-12-20T04:01:53;97444.31;;;4.70;100.00
70304;BME280;57712;48.752;11.348;2023-12-20T04:04:20;97439.63;;;4.63;100.00
70304;BME280;57712;48.752;11.348;2023-12-20T04:06:47;97443.09;;;4.60;100.00
70304;BME280;57712;48.752;11.348;2023-12-20T04:09:14;97448.13;;;4.61;100.00
70304;BME280;57712;48.752;11.348;2023-12-20T04:11:40;97441.91;;;4.57;100.00
70304;BME280;57712;48.752;11.348;2023-12-20T04:14:07;97436.06;;;4.48;100.00
70304;BME280;57712;48.752;11.348;2023-12-20T04:16:34;97440.72;;;4.51;100.00
70304;BME280;57712;48.752;11.348;2023-12-20T04:19:01;97436.47;;;4.54;100.00
70304;BME280;57712;48.752;11.348;2023-12-20T04:21:29;97445.03;;;4.63;100.00
70304;BME280;57712;48.752;11.348;2023-12-20T04:23:56;97443.81;;;4.50;100.00
70304;BME280;57712;48.752;11.348;2023-12-20T04:26:23;97446.13;;;4.48;100.00
70304;BME280;57712;48.752;11.348;2023-12-20T04:28:49;97440.34;;;4.56;100.00
70304;BME280;57712;48.752;11.348;2023-12-20T04:31:20;97447.28;;;4.47;100.00
70304;BME280;57712;48.752;11.348;2023-12-20T04:33:47;97449.31;;;4.60;100.00
70304;BME280;57712;48.752;11.348;2023-12-20T04:36:13;97452.75;;;4.50;100.00
70304;BME280;57712;48.752;11.348;2023-12-20T04:38:40;97451.59;;;4.58;100.00
70304;BME280;57712;48.752;11.348;2023-12-20T04:41:07;97460.06;;;4.46;100.00
70304;BME280;57712;48.752;11.348;2023-12-20T04:43:34;97467.47;;;4.53;100.00
70304;BME280;57712;48.752;11.348;2023-12-20T04:46:00;97467.84;;;4.51;100.00
70304;BME280;57712;48.752;11.348;2023-12-20T04:48:27;97463.56;;;4.47;100.00
70304;BME280;57712;48.752;11.348;2023-12-20T04:50:54;97463.91;;;4.42;100.00
70304;BME280;57712;48.752;11.348;2023-12-20T04:53:21;97458.88;;;4.44;100.00
70304;BME280;57712;48.752;11.348;2023-12-20T04:55:47;97465.03;;;4.37;100.00
70304;BME280;57712;48.752;11.348;2023-12-20T04:58:14;97458.88;;;4.44;100.00
70304;BME280;57712;48.752;11.348;2023-12-20T05:00:41;97458.88;;;4.44;100.00
70304;BME280;57712;48.752;11.348;2023-12-20T05:03:07;97464.31;;;4.47;100.00
70304;BME280;57712;48.752;11.348;2023-12-20T05:05:35;97460.47;;;4.48;100.00
70304;BME280;57712;48.752;11.348;2023-12-20T05:08:02;97462.81;;;4.57;100.00
70304;BME280;57712;48.752;11.348;2023-12-20T05:10:29;97470.19;;;4.56;100.00
70304;BME280;57712;48.752;11.348;2023-12-20T05:12:56;97472.16;;;4.59;100.00
70304;BME280;57712;48.752;11.348;2023-12-20T05:15:23;97469.03;;;4.57;100.00
70304;BME280;57712;48.752;11.348;2023-12-20T05:17:50;97476.00;;;4.51;100.00
70304;BME280;57712;48.752;11.348;2023-12-20T05:20:16;97473.66;;;4.53;100.00
70304;BME280;57712;48.752;11.348;2023-12-20T05:22:43;97476.81;;;4.62;100.00
70304;BME280;57712;48.752;11.348;2023-12-20T05:25:12;97479.09;;;4.57;100.00
70304;BME280;57712;48.752;11.348;2023-12-20T05:27:38;97477.53;;;4.52;100.00
70304;BME280;57712;48.752;11.348;2023-12-20T05:30:06;97490.38;;;4.62;100.00
70304;BME280;57712;48.752;11.348;2023-12-20T05:32:33;97491.16;;;4.59;100.00
70304;BME280;57712;48.752;11.348;2023-12-20T05:34:59;97497.75;;;4.66;100.00
70304;BME280;57712;48.752;11.348;2023-12-20T05:37:27;97500.13;;;4.71;100.00
70304;BME280;57712;48.752;11.348;2023-12-20T05:39:54;97497.00;;;4.69;100.00
70304;BME280;57712;48.752;11.348;2023-12-20T05:42:20;97497.00;;;4.69;100.00
70304;BME280;57712;48.752;11.348;2023-12-20T05:44:47;97509.44;;;4.77;100.00
70304;BME280;57712;48.752;11.348;2023-12-20T05:47:16;97507.84;;;4.69;100.00
70304;BME280;57712;48.752;11.348;2023-12-20T05:49:44;97519.50;;;4.73;100.00
70304;BME280;57712;48.752;11.348;2023-12-20T05:52:10;97529.66;;;4.83;100.00
70304;BME280;57712;48.752;11.348;2023-12-20T05:54:37;97534.97;;;4.69;100.00
70304;BME280;57712;48.752;11.348;2023-12-20T05:57:04;97536.56;;;4.70;100.00
70304;BME280;57712;48.752;11.348;2023-12-20T05:59:31;97543.56;;;4.78;100.00
70304;BME280;57712;48.752;11.348;2023-12-20T06:01:57;97545.09;;;4.79;100.00
70304;BME280;57712;48.752;11.348;2023-12-20T06:04:24;97557.50;;;4.76;100.00
70304;BME280;57712;48.752;11.348;2023-12-20T06:06:51;97548.63;;;4.83;100.00
70304;BME280;57712;48.752;11.348;2023-12-20T06:09:17;97548.19;;;4.74;100.00
70304;BME280;57712;48.752;11.348;2023-12-20T06:11:44;97548.97;;;4.71;100.00
70304;BME280;57712;48.752;11.348;2023-12-20T06:14:11;97534.28;;;4.82;100.00
70304;BME280;57712;48.752;11.348;2023-12-20T06:16:37;97536.56;;;4.70;100.00
70304;BME280;57712;48.752;11.348;2023-12-20T06:19:04;97530.41;;;4.80;100.00
70304;BME280;57712;48.752;11.348;2023-12-20T06:21:31;97544.38;;;4.82;100.00
70304;BME280;57712;48.752;11.348;2023-12-20T06:23:58;97541.97;;;4.70;100.00
70304;BME280;57712;48.752;11.348;2023-12-20T06:26:25;97548.59;;;4.76;100.00
70304;BME280;57712;48.752;11.348;2023-12-20T06:28:52;97552.13;;;4.80;100.00
70304;BME280;57712;48.752;11.348;2023-12-20T06:31:18;97552.97;;;4.95;100.00
70304;BME280;57712;48.752;11.348;2023-12-20T06:33:45;97557.16;;;4.85;100.00
70304;BME280;57712;48.752;11.348;2023-12-20T06:36:12;97553.31;;;4.86;100.00
70304;BME280;57712;48.752;11.348;2023-12-20T06:38:39;97551.00;;;4.91;100.00
70304;BME280;57712;48.752;11.348;2023-12-20T06:41:06;97556.41;;;4.88;100.00
70304;BME280;57712;48.752;11.348;2023-12-20T06:43:33;97564.66;;;5.06;100.00
70304;BME280;57712;48.752;11.348;2023-12-20T06:46:14;97561.88;;;4.95;100.00
70304;BME280;57712;48.752;11.348;2023-12-20T06:48:42;97560.69;;;4.89;100.00
70304;BME280;57712;48.752;11.348;2023-12-20T06:51:14;97554.50;;;4.92;100.00
70304;BME280;57712;48.752;11.348;2023-12-20T06:53:42;97558.69;;;4.79;100.00
70304;BME280;57712;48.752;11.348;2023-12-20T06:56:10;97571.53;;;4.89;100.00
70304;BME280;57712;48.752;11.348;2023-12-20T06:58:42;97570.03;;;4.95;100.00
70304;BME280;57712;48.752;11.348;2023-12-20T07:01:12;97576.16;;;4.85;100.00
70304;BME280;57712;48.752;11.348;2023-12-20T07:03:39;97574.66;;;4.91;100.00
70304;BME280;57712;48.752;11.348;2023-12-20T07:06:07;97578.91;;;4.88;100.00
70304;BME280;57712;48.752;11.348;2023-12-20T07:08:34;97593.22;;;4.85;100.00
70304;BME280;57712;48.752;11.348;2023-12-20T07:11:01;97587.03;;;4.85;100.00
70304;BME280;57712;48.752;11.348;2023-12-20T07:13:27;97593.22;;;4.85;100.00
70304;BME280;57712;48.752;11.348;2023-12-20T07:15:54;97602.53;;;4.88;100.00
70304;BME280;57712;48.752;11.348;2023-12-20T07:18:21;97614.53;;;4.80;100.00
70304;BME280;57712;48.752;11.348;2023-12-20T07:20:47;97611.06;;;4.83;100.00
70304;BME280;57712;48.752;11.348;2023-12-20T07:23:14;97612.66;;;4.91;100.00
70304;BME280;57712;48.752;11.348;2023-12-20T07:25:41;97618.03;;;4.80;100.00
70304;BME280;57712;48.752;11.348;2023-12-20T07:28:07;97624.69;;;4.90;100.00
70304;BME280;57712;48.752;11.348;2023-12-20T07:30:34;97625.41;;;4.83;100.00
70304;BME280;57712;48.752;11.348;2023-12-20T07:33:01;97636.66;;;4.89;100.00
70304;BME280;57712;48.752;11.348;2023-12-20T07:35:29;97628.13;;;4.83;100.00
70304;BME280;57712;48.752;11.348;2023-12-20T07:37:56;97628.91;;;4.87;100.00
70304;BME280;57712;48.752;11.348;2023-12-20T07:40:22;97631.38;;;5.10;100.00
70304;BME280;57712;48.752;11.348;2023-12-20T07:42:50;97636.78;;;5.03;100.00
70304;BME280;57712;48.752;11.348;2023-12-20T07:45:17;97641.38;;;4.92;100.00
70304;BME280;57712;48.752;11.348;2023-12-20T07:47:44;97650.28;;;4.92;100.00
70304;BME280;57712;48.752;11.348;2023-12-20T07:50:11;97653.06;;;5.03;100.00
70304;BME280;57712;48.752;11.348;2023-12-20T07:52:38;97652.25;;;4.99;100.00
70304;BME280;57712;48.752;11.348;2023-12-20T07:55:05;97655.00;;;5.06;100.00
70304;BME280;57712;48.752;11.348;2023-12-20T07:57:32;97653.91;;;5.11;100.00
70304;BME280;57712;48.752;11.348;2023-12-20T07:59:58;97648.47;;;5.14;100.00
70304;BME280;57712;48.752;11.348;2023-12-20T08:02:25;97643.09;;;5.21;100.00
70304;BME280;57712;48.752;11.348;2023-12-20T08:04:52;97646.22;;;5.27;100.00
70304;BME280;57712;48.752;11.348;2023-12-20T08:07:19;97643.94;;;5.40;100.00
70304;BME280;57712;48.752;11.348;2023-12-20T08:09:45;97646.22;;;5.24;100.00
70304;BME280;57712;48.752;11.348;2023-12-20T08:12:12;97653.91;;;5.11;100.00
70304;BME280;57712;48.752;11.348;2023-12-20T08:14:39;97660.19;;;5.26;100.00
70304;BME280;57712;48.752;11.348;2023-12-20T08:17:05;97660.94;;;5.22;100.00
70304;BME280;57712;48.752;11.348;2023-12-20T08:19:32;97670.25;;;5.21;100.00
70304;BME280;57712;48.752;11.348;2023-12-20T08:21:59;97661.34;;;5.25;100.00
70304;BME280;57712;48.752;11.348;2023-12-20T08:24:25;97667.13;;;5.19;100.00
70304;BME280;57712;48.752;11.348;2023-12-20T08:26:52;97672.16;;;5.17;100.00
70304;BME280;57712;48.752;11.348;2023-12-20T08:29:19;97667.09;;;5.16;100.00
70304;BME280;57712;48.752;11.348;2023-12-20T08:31:45;97662.91;;;5.26;100.00
70304;BME280;57712;48.752;11.348;2023-12-20T08:34:13;97670.66;;;5.31;100.00
70304;BME280;57712;48.752;11.348;2023-12-20T08:36:41;97669.50;;;5.28;100.00
70304;BME280;57712;48.752;11.348;2023-12-20T08:39:08;97676.47;;;5.22;100.00
70304;BME280;57712;48.752;11.348;2023-12-20T08:41:35;97661.00;;;5.33;100.00
70304;BME280;57712;48.752;11.348;2023-12-20T08:44:03;97665.69;;;5.40;100.00
70304;BME280;57712;48.752;11.348;2023-12-20T08:46:30;97653.25;;;5.39;100.00
70304;BME280;57712;48.752;11.348;2023-12-20T08:48:57;97654.09;;;5.50;100.00
70304;BME280;57712;48.752;11.348;2023-12-20T08:51:24;97650.16;;;5.37;100.00
70304;BME280;57712;48.752;11.348;2023-12-20T08:53:52;97654.88;;;5.50;100.00
70304;BME280;57712;48.752;11.348;2023-12-20T08:56:19;97653.25;;;5.35;100.00
70304;BME280;57712;48.752;11.348;2023-12-20T08:58:46;97663.34;;;5.38;100.00
70304;BME280;57712;48.752;11.348;2023-12-20T09:01:14;97661.84;;;5.48;100.00
70304;BME280;57712;48.752;11.348;2023-12-20T09:03:41;97656.31;;;5.30;100.00
70304;BME280;57712;48.752;11.348;2023-12-20T09:06:08;97644.38;;;5.45;100.00
70304;BME280;57712;48.752;11.348;2023-12-20T09:08:34;97648.25;;;5.48;100.00
70304;BME280;57712;48.752;11.348;2023-12-20T09:11:01;97644.44;;;5.56;100.00
70304;BME280;57712;48.752;11.348;2023-12-20T09:13:28;97640.09;;;5.44;100.00
70304;BME280;57712;48.752;11.348;2023-12-20T09:15:56;97637.78;;;5.50;100.00
70304;BME280;57712;48.752;11.348;2023-12-20T09:18:23;97633.16;;;5.54;100.00
70304;BME280;57712;48.752;11.348;2023-12-20T09:20:50;97637.88;;;5.71;100.00
70304;BME280;57712;48.752;11.348;2023-12-20T09:23:17;97624.66;;;5.70;100.00
70304;BME280;57712;48.752;11.348;2023-12-20T09:25:44;97634.72;;;5.62;100.00
70304;BME280;57712;48.752;11.348;2023-12-20T09:28:11;97629.44;;;5.98;100.00
70304;BME280;57712;48.752;11.348;2023-12-20T09:30:38;97635.97;;;5.79;100.00
70304;BME280;57712;48.752;11.348;2023-12-20T09:33:07;97642.53;;;5.71;100.00
70304;BME280;57712;48.752;11.348;2023-12-20T09:35:34;97644.91;;;5.79;100.00
70304;BME280;57712;48.752;11.348;2023-12-20T09:38:01;97649.16;;;5.77;100.00
70304;BME280;57712;48.752;11.348;2023-12-20T09:40:28;97650.72;;;5.74;100.00
70304;BME280;57712;48.752;11.348;2023-12-20T09:43:02;97658.44;;;5.69;100.00
70304;BME280;57712;48.752;11.348;2023-12-20T09:45:31;97646.84;;;5.75;100.00
70304;BME280;57712;48.752;11.348;2023-12-20T09:47:58;97641.78;;;5.77;100.00
70304;BME280;57712;48.752;11.348;2023-12-20T09:50:26;97645.31;;;5.89;100.00
70304;BME280;57712;48.752;11.348;2023-12-20T09:52:53;97636.41;;;5.92;100.00
70304;BME280;57712;48.752;11.348;2023-12-20T09:55:21;97640.25;;;5.84;100.00
70304;BME280;57712;48.752;11.348;2023-12-20T09:57:49;97637.22;;;5.96;100.00
70304;BME280;57712;48.752;11.348;2023-12-20T10:00:16;97630.63;;;6.07;100.00
70304;BME280;57712;48.752;11.348;2023-12-20T10:02:57;97632.59;;;6.21;100.00
70304;BME280;57712;48.752;11.348;2023-12-20T10:05:27;97629.88;;;6.21;100.00
70304;BME280;57712;48.752;11.348;2023-12-20T10:07:54;97630.25;;;6.09;100.00
70304;BME280;57712;48.752;11.348;2023-12-20T10:10:22;97634.94;;;6.19;100.00
70304;BME280;57712;48.752;11.348;2023-12-20T10:13:10;97615.91;;;6.16;100.00
70304;BME280;57712;48.752;11.348;2023-12-20T10:15:39;97625.59;;;6.06;100.00
70304;BME280;57712;48.752;11.348;2023-12-20T10:18:08;97628.69;;;6.08;100.00
70304;BME280;57712;48.752;11.348;2023-12-20T10:20:35;97623.66;;;6.17;100.00
70304;BME280;57712;48.752;11.348;2023-12-20T10:23:03;97627.13;;;6.03;100.00
70304;BME280;57712;48.752;11.348;2023-12-20T10:25:30;97633.38;;;6.22;100.00
70304;BME280;57712;48.752;11.348;2023-12-20T10:28:16;97652.00;;;6.09;100.00
70304;BME280;57712;48.752;11.348;2023-12-20T10:30:45;97641.09;;;5.95;100.00
70304;BME280;57712;48.752;11.348;2023-12-20T10:33:12;97637.25;;;6.21;100.00
70304;BME280;57712;48.752;11.348;2023-12-20T10:35:40;97645.00;;;6.08;100.00
70304;BME280;57712;48.752;11.348;2023-12-20T10:38:12;97640.72;;;6.00;100.00
70304;BME280;57712;48.752;11.348;2023-12-20T10:40:40;97633.00;;;6.16;100.00
70304;BME280;57712;48.752;11.348;2023-12-20T10:43:08;97626.38;;;6.17;100.00
70304;BME280;57712;48.752;11.348;2023-12-20T10:45:35;97627.91;;;6.15;100.00
70304;BME280;57712;48.752;11.348;2023-12-20T10:48:03;97620.13;;;6.02;100.00
70304;BME280;57712;48.752;11.348;2023-12-20T10:50:30;97613.19;;;6.16;100.00
70304;BME280;57712;48.752;11.348;2023-12-20T10:52:58;97606.94;;;6.08;100.00
70304;BME280;57712;48.752;11.348;2023-12-20T10:55:26;97606.97;;;6.26;100.00
70304;BME280;57712;48.752;11.348;2023-12-20T10:58:00;97608.50;;;6.34;100.00
70304;BME280;57712;48.752;11.348;2023-12-20T11:00:29;97596.88;;;6.51;100.00
70304;BME280;57712;48.752;11.348;2023-12-20T11:03:00;97596.06;;;6.79;100.00
70304;BME280;57712;48.752;11.348;2023-12-20T11:05:38;97589.84;;;6.82;100.00
70304;BME280;57712;48.752;11.348;2023-12-20T11:08:13;97600.69;;;7.04;100.00
70304;BME280;57712;48.752;11.348;2023-12-20T11:11:08;97584.78;;;6.84;100.00
70304;BME280;57712;48.752;11.348;2023-12-20T11:13:55;97589.06;;;6.78;100.00
70304;BME280;57712;48.752;11.348;2023-12-20T11:16:23;97596.00;;;7.04;100.00
70304;BME280;57712;48.752;11.348;2023-12-20T11:18:55;97567.16;;;8.57;100.00
70304;BME280;57712;48.752;11.348;2023-12-20T11:21:22;97565.66;;;7.93;100.00
70304;BME280;57712;48.752;11.348;2023-12-20T11:23:48;97569.09;;;8.01;100.00
70304;BME280;57712;48.752;11.348;2023-12-20T11:26:16;97569.38;;;7.55;100.00
70304;BME280;57712;48.752;11.348;2023-12-20T11:28:43;97577.19;;;7.52;100.00
70304;BME280;57712;48.752;11.348;2023-12-20T11:31:14;97578.72;;;7.53;100.00
70304;BME280;57712;48.752;11.348;2023-12-20T11:33:41;97589.81;;;6.97;100.00
70304;BME280;57712;48.752;11.348;2023-12-20T11:36:14;97574.28;;;6.72;100.00
70304;BME280;57712;48.752;11.348;2023-12-20T11:38:56;97580.53;;;6.69;100.00
70304;BME280;57712;48.752;11.348;2023-12-20T11:41:24;97584.38;;;6.82;100.00
70304;BME280;57712;48.752;11.348;2023-12-20T11:43:55;97590.66;;;6.40;100.00
70304;BME280;57712;48.752;11.348;2023-12-20T11:46:22;97579.34;;;6.56;100.00
70304;BME280;57712;48.752;11.348;2023-12-20T11:48:50;97586.38;;;6.43;100.00
70304;BME280;57712;48.752;11.348;2023-12-20T11:51:17;97568.09;;;6.22;100.00
70304;BME280;57712;48.752;11.348;2023-12-20T11:53:43;97564.59;;;6.21;100.00
70304;BME280;57712;48.752;11.348;2023-12-20T11:56:10;97565.72;;;6.84;100.00
70304;BME280;57712;48.752;11.348;2023-12-20T11:58:37;97554.88;;;6.56;100.00
70304;BME280;57712;48.752;11.348;2023-12-20T12:01:05;97556.03;;;6.62;100.00
70304;BME280;57712;48.752;11.348;2023-12-20T12:03:35;97547.88;;;6.51;100.00
70304;BME280;57712;48.752;11.348;2023-12-20T12:06:02;97537.00;;;6.23;100.00
70304;BME280;57712;48.752;11.348;2023-12-20T12:08:32;97547.13;;;6.29;100.00
70304;BME280;57712;48.752;11.348;2023-12-20T12:10:58;97545.97;;;6.16;100.00
70304;BME280;57712;48.752;11.348;2023-12-20T12:13:25;97552.16;;;6.20;100.00
70304;BME280;57712;48.752;11.348;2023-12-20T12:15:55;97554.06;;;6.73;100.00
70304;BME280;57712;48.752;11.348;2023-12-20T12:18:22;97549.44;;;6.49;100.00
70304;BME280;57712;48.752;11.348;2023-12-20T12:20:48;97553.31;;;6.12;100.00
70304;BME280;57712;48.752;11.348;2023-12-20T12:23:22;97562.66;;;6.18;100.00
70304;BME280;57712;48.752;11.348;2023-12-20T12:25:50;97565.75;;;5.99;100.00
70304;BME280;57712;48.752;11.348;2023-12-20T12:28:17;97576.63;;;6.70;100.00
70304;BME280;57712;48.752;11.348;2023-12-20T12:30:56;97564.94;;;6.77;100.00
70304;BME280;57712;48.752;11.348;2023-12-20T12:33:24;97556.31;;;7.07;100.00
70304;BME280;57712;48.752;11.348;2023-12-20T12:35:51;97558.97;;;8.53;100.00
70304;BME280;57712;48.752;11.348;2023-12-20T12:38:22;97551.97;;;8.00;100.00
70304;BME280;57712;48.752;11.348;2023-12-20T12:40:49;97557.13;;;8.88;100.00
70304;BME280;57712;48.752;11.348;2023-12-20T12:43:16;97554.78;;;8.42;100.00
70304;BME280;57712;48.752;11.348;2023-12-20T12:45:43;97551.19;;;8.93;100.00
70304;BME280;57712;48.752;11.348;2023-12-20T12:48:10;97550.69;;;9.97;100.00
70304;BME280;57712;48.752;11.348;2023-12-20T12:50:37;97538.78;;;9.53;100.00
70304;BME280;57712;48.752;11.348;2023-12-20T12:53:04;97540.03;;;9.14;100.00